Main page
METAR-TAF:

METAR-TAF

Airports :

Afonsos Air Force Base

Rio de Janeiro, Rio de Janeiro, Brazil

latitude: 22-52S, longitude: 043-22W, elevation: 34 m

Current weather observation

The report was made 1 hour and 20 minutes ago, at 02:00 UTC
Wind 6 kt from the West
Temperature 22°C
Humidity 83%
Pressure 1015 hPa
Visibility: 8000 m
Scattered clouds at a height of 1000 ft
Broken clouds at a height of 1400 ft

METAR: SBAF 200200Z 26006KT 8000 SCT010 BKN014 22/19 Q1015

Time: 00:20 (03:20 UTC)

Forecast

The report was made 11 hours and 50 minutes ago, at 15:30 UTC
Forecast valid from 19 at 18 UTC to 20 at 06 UTC
Wind 8 kt from the Southwest
Visibility: 8000 m
Scattered clouds at a height of 2000 ft
Broken clouds at a height of 3000 ft
Probability 40% :
Temporary
from 19 at 18 UTC to 19 at 20 UTC
Visibility: 6000 m
Broken clouds at a height of 2000 ft
rain

TAF: SBAF 191530Z 1918/2006 23008KT 8000 SCT020 BKN030 TX28/1918Z TN19/2005Z PROB40 TEMPO 1918/1920 6000 RA BKN020 RMK PEB

Weather observations and forecasts of more than 4000 airports (METAR and TAF reports).

The available stations are represented by yellow and red dots on the map.

Hover mouse over dot to see the name of the station.

Then click to see weather observations and forecasts.

To change the map : click on the green buttons with a black cross to zoom in, on the green button with a dash to zoom out, or on the green arrows for adjacent maps.


METAR-TAF: